Time;durP1;ratioP1;P1;durP2;ratioP2;P2;SDS_P1;SDS_P2;PMS_P1;PMS_P2;Temp;Humidity;BMP_temperature;BMP_pressure;BME280_temperature;BME280_humidity;BME280_pressure;Samples;Min_cycle;Max_cycle;Signal;HPM_P1;HPM_P2
2022/05/04 00:00:48;;;;;;;7.07;3.42;;;;;;;;;;5083442;28;20028;-52
2022/05/04 00:03:14;;;;;;;5.18;3.47;;;;;;;;;;5089784;28;20042;-51
2022/05/04 00:05:39;;;;;;;8.13;4.22;;;;;;;;;;5077564;28;20032;-51
2022/05/04 00:08:06;;;;;;;7.30;3.97;;;;;;;;;;5077522;28;20022;-50
2022/05/04 00:10:32;;;;;;;6.10;3.40;;;;;;;;;;5080869;28;20039;-48
2022/05/04 00:12:58;;;;;;;5.72;3.60;;;;;;;;;;5077013;28;20515;-49
2022/05/04 00:15:25;;;;;;;5.07;3.47;;;;;;;;;;5069889;28;20039;-50
2022/05/04 00:17:51;;;;;;;6.25;3.80;;;;;;;;;;5086361;28;20020;-48
2022/05/04 00:20:17;;;;;;;6.38;3.88;;;;;;;;;;5081995;28;20104;-47
2022/05/04 00:22:43;;;;;;;6.18;3.80;;;;;;;;;;5076028;28;20017;-49
2022/05/04 00:25:10;;;;;;;5.07;3.30;;;;;;;;;;5069121;28;20529;-50
2022/05/04 00:27:37;;;;;;;7.55;3.88;;;;;;;;;;5074010;28;20024;-47
2022/05/04 00:30:03;;;;;;;5.50;3.75;;;;;;;;;;5070891;28;20499;-49
2022/05/04 00:32:29;;;;;;;4.75;3.47;;;;;;;;;;5068771;28;20483;-50
2022/05/04 00:34:55;;;;;;;6.70;3.72;;;;;;;;;;5070630;28;20109;-47
2022/05/04 00:37:21;;;;;;;5.40;3.83;;;;;;;;;;5083767;28;21873;-49
2022/05/04 00:39:47;;;;;;;4.85;3.53;;;;;;;;;;5081352;28;20035;-49
2022/05/04 00:42:17;;;;;;;5.22;3.72;;;;;;;;;;5072378;28;20020;-46
2022/05/04 00:44:44;;;;;;;6.32;3.63;;;;;;;;;;5073505;28;20029;-48
2022/05/04 00:47:10;;;;;;;5.85;3.55;;;;;;;;;;5077081;28;20180;-51
2022/05/04 00:49:37;;;;;;;5.38;3.75;;;;;;;;;;5080526;28;20107;-49
2022/05/04 00:52:06;;;;;;;7.10;3.47;;;;;;;;;;5090509;28;20032;-53
2022/05/04 00:54:35;;;;;;;5.75;3.60;;;;;;;;;;5072413;28;20099;-51
2022/05/04 00:57:02;;;;;;;7.50;3.33;;;;;;;;;;5087798;28;20467;-50
2022/05/04 00:59:30;;;;;;;5.57;3.60;;;;;;;;;;5090847;28;20177;-47
2022/05/04 01:01:56;;;;;;;5.72;4.20;;;;;;;;;;5075773;28;20107;-50
2022/05/04 01:04:22;;;;;;;6.07;4.05;;;;;;;;;;5075529;28;20107;-47
2022/05/04 01:06:48;;;;;;;10.57;3.92;;;;;;;;;;5087386;28;20103;-48
2022/05/04 01:09:14;;;;;;;5.95;4.25;;;;;;;;;;5082650;28;20135;-48
2022/05/04 01:11:40;;;;;;;8.50;4.28;;;;;;;;;;5083207;28;20040;-47
2022/05/04 01:14:08;;;;;;;5.47;3.67;;;;;;;;;;5082370;28;20024;-50
2022/05/04 01:16:34;;;;;;;6.47;3.97;;;;;;;;;;5069301;28;20598;-48
2022/05/04 01:19:01;;;;;;;7.18;4.13;;;;;;;;;;5063467;28;20111;-48
2022/05/04 01:21:27;;;;;;;5.85;3.92;;;;;;;;;;5072717;28;20052;-48
2022/05/04 01:23:57;;;;;;;6.35;3.92;;;;;;;;;;5074290;28;20361;-46
2022/05/04 01:26:23;;;;;;;6.68;3.97;;;;;;;;;;5070203;28;20042;-45
2022/05/04 01:28:49;;;;;;;6.95;4.32;;;;;;;;;;5077910;28;20016;-49
2022/05/04 01:31:15;;;;;;;8.38;4.20;;;;;;;;;;5080491;28;20551;-48
2022/05/04 01:33:41;;;;;;;6.10;4.05;;;;;;;;;;5074851;28;20032;-51
2022/05/04 01:36:07;;;;;;;6.28;3.78;;;;;;;;;;5075129;28;20025;-52
2022/05/04 01:38:34;;;;;;;5.40;3.33;;;;;;;;;;5077297;28;20024;-51
2022/05/04 01:41:00;;;;;;;5.35;3.47;;;;;;;;;;5083509;28;20500;-47
2022/05/04 01:43:26;;;;;;;5.90;3.63;;;;;;;;;;5079957;28;20765;-48
2022/05/04 01:45:52;;;;;;;5.43;3.53;;;;;;;;;;5087228;28;20565;-51
2022/05/04 01:48:18;;;;;;;5.55;3.28;;;;;;;;;;5090095;28;20047;-51
2022/05/04 01:50:44;;;;;;;6.22;3.50;;;;;;;;;;5085985;28;20538;-48
2022/05/04 01:53:10;;;;;;;5.95;3.78;;;;;;;;;;5068991;28;20037;-47
2022/05/04 01:55:36;;;;;;;6.97;3.40;;;;;;;;;;5075683;28;20025;-46
2022/05/04 01:58:03;;;;;;;4.65;3.40;;;;;;;;;;5079318;28;20411;-46
2022/05/04 02:00:29;;;;;;;7.07;3.88;;;;;;;;;;5089647;28;20028;-49
2022/05/04 02:02:56;;;;;;;7.53;3.80;;;;;;;;;;5083015;28;20035;-50
2022/05/04 02:05:22;;;;;;;7.13;3.40;;;;;;;;;;5066159;28;20119;-48
2022/05/04 02:07:51;;;;;;;4.85;3.15;;;;;;;;;;5083901;28;20028;-48
2022/05/04 02:10:17;;;;;;;4.93;3.50;;;;;;;;;;5074875;28;20036;-50
2022/05/04 02:12:43;;;;;;;5.60;3.80;;;;;;;;;;5078652;28;20551;-48
2022/05/04 02:15:10;;;;;;;9.40;4.00;;;;;;;;;;5067299;28;20035;-48
2022/05/04 02:17:36;;;;;;;6.35;3.55;;;;;;;;;;5085712;28;20162;-47
2022/05/04 02:20:02;;;;;;;4.38;3.40;;;;;;;;;;5086151;28;20386;-50
2022/05/04 02:22:28;;;;;;;6.03;3.50;;;;;;;;;;5076310;28;20028;-52
2022/05/04 02:24:54;;;;;;;6.30;3.72;;;;;;;;;;5066421;28;20040;-49
2022/05/04 02:27:20;;;;;;;6.25;3.83;;;;;;;;;;5093699;28;20119;-50
2022/05/04 02:29:46;;;;;;;7.82;4.35;;;;;;;;;;5093320;28;20040;-47
2022/05/04 02:32:12;;;;;;;5.22;3.92;;;;;;;;;;5077584;28;20033;-49
2022/05/04 02:37:54;;;;;;;6.43;4.43;;;;;;;;;;5087552;28;20031;-47
2022/05/04 02:40:10;;;;;;;5.55;3.72;;;;;;;;;;5076856;28;20316;-48
2022/05/04 02:42:36;;;;;;;5.07;3.90;;;;;;;;;;5080433;28;20020;-48
2022/05/04 02:45:02;;;;;;;7.70;3.95;;;;;;;;;;5088393;28;20153;-48
2022/05/04 02:47:28;;;;;;;5.90;3.65;;;;;;;;;;5093553;28;20020;-48
2022/05/04 02:49:54;;;;;;;5.85;4.15;;;;;;;;;;5077777;28;20028;-48
2022/05/04 02:52:20;;;;;;;7.18;4.20;;;;;;;;;;5059322;28;20044;-49
2022/05/04 02:54:46;;;;;;;6.72;4.05;;;;;;;;;;5069397;28;20037;-50
2022/05/04 02:57:12;;;;;;;4.95;3.70;;;;;;;;;;5073340;28;20055;-49
2022/05/04 02:59:38;;;;;;;6.70;4.40;;;;;;;;;;5073189;28;20435;-50
2022/05/04 03:04:48;;;;;;;6.50;4.30;;;;;;;;;;5077093;28;20567;-45
2022/05/04 03:07:14;;;;;;;7.60;4.43;;;;;;;;;;5069805;28;20024;-49
2022/05/04 03:09:40;;;;;;;7.30;4.88;;;;;;;;;;5080399;28;20025;-48
2022/05/04 03:12:07;;;;;;;8.00;4.80;;;;;;;;;;5061540;28;20519;-47
2022/05/04 03:14:33;;;;;;;6.68;4.35;;;;;;;;;;5054792;28;20037;-49
2022/05/04 03:16:59;;;;;;;8.68;3.97;;;;;;;;;;5091592;28;20032;-49
2022/05/04 03:19:25;;;;;;;6.43;4.80;;;;;;;;;;5083440;28;20090;-47
2022/05/04 03:21:51;;;;;;;6.68;4.57;;;;;;;;;;5074269;28;20033;-47
2022/05/04 03:24:17;;;;;;;7.15;4.45;;;;;;;;;;5076711;28;20027;-48
2022/05/04 03:26:43;;;;;;;5.97;4.30;;;;;;;;;;5081950;28;20020;-49
2022/05/04 03:29:09;;;;;;;6.80;4.90;;;;;;;;;;5086257;28;20056;-46
2022/05/04 03:31:36;;;;;;;6.45;4.45;;;;;;;;;;5070798;28;20032;-48
2022/05/04 03:34:02;;;;;;;6.05;4.38;;;;;;;;;;5085711;28;20510;-48
2022/05/04 03:36:28;;;;;;;6.70;4.72;;;;;;;;;;5082095;28;20559;-49
2022/05/04 03:38:54;;;;;;;7.28;4.40;;;;;;;;;;5087731;28;20059;-49
2022/05/04 03:41:21;;;;;;;8.07;4.95;;;;;;;;;;5071832;28;20016;-51
2022/05/04 03:43:47;;;;;;;7.25;5.40;;;;;;;;;;5086414;28;20025;-49
2022/05/04 03:46:18;;;;;;;7.15;4.53;;;;;;;;;;5080828;28;20028;-49
2022/05/04 03:48:45;;;;;;;7.18;5.10;;;;;;;;;;5063900;28;20037;-47
2022/05/04 03:51:13;;;;;;;7.18;4.68;;;;;;;;;;5081332;28;20030;-52
2022/05/04 03:53:39;;;;;;;8.38;5.43;;;;;;;;;;5086618;28;20060;-49
2022/05/04 03:56:05;;;;;;;9.80;5.55;;;;;;;;;;5072609;28;20034;-52
2022/05/04 03:58:32;;;;;;;9.02;5.28;;;;;;;;;;5089430;28;20032;-46
2022/05/04 04:00:57;;;;;;;9.02;5.47;;;;;;;;;;5078498;28;20036;-47
2022/05/04 04:03:23;;;;;;;7.72;5.20;;;;;;;;;;5065082;28;20767;-49
2022/05/04 04:05:49;;;;;;;9.15;5.78;;;;;;;;;;5068866;28;20032;-48
2022/05/04 04:08:15;;;;;;;9.07;5.82;;;;;;;;;;5065056;28;20074;-49
2022/05/04 04:10:41;;;;;;;8.32;5.15;;;;;;;;;;5065707;28;20745;-51
2022/05/04 04:13:08;;;;;;;9.35;5.07;;;;;;;;;;5067622;28;20388;-47
2022/05/04 04:15:34;;;;;;;7.95;5.22;;;;;;;;;;5057411;28;20028;-51
2022/05/04 04:18:00;;;;;;;7.93;5.07;;;;;;;;;;5069074;28;20024;-51
2022/05/04 04:23:10;;;;;;;8.45;5.05;;;;;;;;;;5074176;28;20250;-51
2022/05/04 04:25:37;;;;;;;7.28;4.70;;;;;;;;;;5062451;28;20021;-51
2022/05/04 04:28:03;;;;;;;9.27;4.93;;;;;;;;;;5076042;28;20032;-49
2022/05/04 04:30:29;;;;;;;10.20;4.85;;;;;;;;;;5068852;28;20028;-45
2022/05/04 04:32:55;;;;;;;8.13;5.13;;;;;;;;;;5073615;28;20034;-52
2022/05/04 04:35:21;;;;;;;9.20;5.47;;;;;;;;;;5068124;28;20039;-50
2022/05/04 04:37:47;;;;;;;9.60;5.30;;;;;;;;;;5062584;28;20025;-50
2022/05/04 04:40:13;;;;;;;9.98;5.75;;;;;;;;;;5065116;28;20366;-49
2022/05/04 04:42:39;;;;;;;9.93;5.88;;;;;;;;;;5060211;28;20099;-48
2022/05/04 04:45:05;;;;;;;10.10;6.13;;;;;;;;;;5065023;28;20025;-47
2022/05/04 04:47:31;;;;;;;7.18;4.72;;;;;;;;;;5062280;28;20021;-46
2022/05/04 04:49:58;;;;;;;8.98;5.53;;;;;;;;;;5078313;28;20027;-50
2022/05/04 04:52:24;;;;;;;9.00;6.00;;;;;;;;;;5053356;28;20044;-47
2022/05/04 04:54:50;;;;;;;7.95;5.43;;;;;;;;;;5054844;28;20033;-49
2022/05/04 04:57:16;;;;;;;9.82;5.88;;;;;;;;;;5061744;28;20036;-48
2022/05/04 04:59:42;;;;;;;9.95;6.43;;;;;;;;;;5059550;28;20488;-47
2022/05/04 05:02:08;;;;;;;10.45;5.90;;;;;;;;;;5078061;28;20031;-51
2022/05/04 05:04:34;;;;;;;9.63;5.75;;;;;;;;;;5063073;28;20033;-49
2022/05/04 05:07:00;;;;;;;9.85;6.35;;;;;;;;;;5057808;28;20086;-52
2022/05/04 05:09:26;;;;;;;9.50;6.22;;;;;;;;;;5044801;28;20036;-51
2022/05/04 05:11:52;;;;;;;16.45;7.75;;;;;;;;;;5074063;28;20092;-51
2022/05/04 05:17:03;;;;;;;12.27;7.80;;;;;;;;;;5069365;28;20043;-49
2022/05/04 05:19:29;;;;;;;12.68;7.70;;;;;;;;;;5059275;28;20037;-48
2022/05/04 05:21:55;;;;;;;11.98;7.30;;;;;;;;;;5054594;28;20063;-47
2022/05/04 05:24:20;;;;;;;14.45;8.25;;;;;;;;;;5057774;28;20390;-47
2022/05/04 05:26:46;;;;;;;11.13;7.13;;;;;;;;;;5064895;28;20076;-49
2022/05/04 05:29:12;;;;;;;11.88;6.85;;;;;;;;;;5060145;28;20033;-49
2022/05/04 05:31:38;;;;;;;13.73;7.72;;;;;;;;;;5065093;28;20028;-51
2022/05/04 05:34:04;;;;;;;12.38;7.28;;;;;;;;;;5056721;28;20040;-48
2022/05/04 05:36:30;;;;;;;14.15;7.40;;;;;;;;;;5064952;28;20039;-48
2022/05/04 05:38:56;;;;;;;12.00;7.25;;;;;;;;;;5063356;28;20037;-47
2022/05/04 05:41:23;;;;;;;13.75;8.15;;;;;;;;;;5070233;28;20156;-49
2022/05/04 05:43:49;;;;;;;13.85;7.97;;;;;;;;;;5060480;28;20484;-49
2022/05/04 05:46:15;;;;;;;12.88;8.35;;;;;;;;;;5051730;28;20047;-49
2022/05/04 05:48:42;;;;;;;12.98;8.00;;;;;;;;;;5057191;28;20068;-48
2022/05/04 05:51:08;;;;;;;9.85;6.60;;;;;;;;;;5065250;28;20480;-51
2022/05/04 05:53:34;;;;;;;14.63;7.43;;;;;;;;;;5067388;28;20062;-46
2022/05/04 05:56:00;;;;;;;11.93;7.30;;;;;;;;;;5078530;28;20029;-47
2022/05/04 05:58:26;;;;;;;10.82;7.07;;;;;;;;;;5067524;28;20111;-50
2022/05/04 06:00:52;;;;;;;12.27;7.47;;;;;;;;;;5077707;28;20421;-52
2022/05/04 06:03:18;;;;;;;12.02;7.65;;;;;;;;;;5082051;28;20032;-50
2022/05/04 06:05:44;;;;;;;10.75;7.35;;;;;;;;;;5069914;28;20393;-50
2022/05/04 06:08:11;;;;;;;13.57;8.00;;;;;;;;;;5094085;28;20067;-49
2022/05/04 06:10:37;;;;;;;10.85;6.93;;;;;;;;;;5087132;28;20032;-48
2022/05/04 06:13:03;;;;;;;12.02;6.60;;;;;;;;;;5076734;28;20078;-47
2022/05/04 06:15:29;;;;;;;13.20;7.22;;;;;;;;;;5074345;28;20034;-49
2022/05/04 06:17:56;;;;;;;8.15;5.88;;;;;;;;;;5065950;28;20028;-47
2022/05/04 06:20:23;;;;;;;10.05;5.93;;;;;;;;;;5086340;28;20028;-48
2022/05/04 06:22:49;;;;;;;13.18;7.18;;;;;;;;;;5057272;28;20370;-49
2022/05/04 06:25:15;;;;;;;10.23;6.40;;;;;;;;;;5084662;28;20035;-46
2022/05/04 06:27:41;;;;;;;15.93;7.13;;;;;;;;;;5081982;28;20028;-47
2022/05/04 06:35:37;;;;;;;9.70;5.70;;;;;;;;;;5079739;28;20120;-48
2022/05/04 06:38:03;;;;;;;12.32;5.97;;;;;;;;;;5067186;28;20112;-47
2022/05/04 06:40:29;;;;;;;9.70;5.45;;;;;;;;;;5065919;28;20096;-48
2022/05/04 06:42:55;;;;;;;10.38;5.68;;;;;;;;;;5082362;28;20487;-47
2022/05/04 06:45:21;;;;;;;9.15;5.90;;;;;;;;;;5072224;28;20078;-50
2022/05/04 06:47:47;;;;;;;11.55;6.10;;;;;;;;;;5084664;28;20090;-49
2022/05/04 06:50:13;;;;;;;10.38;6.18;;;;;;;;;;5064216;28;20063;-47
2022/05/04 06:52:39;;;;;;;9.77;6.13;;;;;;;;;;5072756;28;20051;-47
2022/05/04 06:55:06;;;;;;;8.90;5.85;;;;;;;;;;5073314;28;20033;-52
2022/05/04 06:57:32;;;;;;;10.15;5.82;;;;;;;;;;5058333;28;20021;-51
2022/05/04 06:59:59;;;;;;;9.80;5.97;;;;;;;;;;5061598;28;20039;-48
2022/05/04 07:02:25;;;;;;;10.23;6.57;;;;;;;;;;5070350;28;20025;-46
2022/05/04 07:04:51;;;;;;;12.98;6.40;;;;;;;;;;5068267;28;20036;-46
2022/05/04 07:07:17;;;;;;;9.18;6.35;;;;;;;;;;5055194;28;20087;-46
2022/05/04 07:09:43;;;;;;;8.88;5.88;;;;;;;;;;5064155;28;20420;-46
2022/05/04 07:12:09;;;;;;;9.25;6.22;;;;;;;;;;5083122;28;20025;-50
2022/05/04 07:14:35;;;;;;;8.50;5.93;;;;;;;;;;5063232;28;20029;-48
2022/05/04 07:17:01;;;;;;;10.50;5.65;;;;;;;;;;5078288;28;20389;-47
2022/05/04 07:19:27;;;;;;;10.50;5.63;;;;;;;;;;5074441;28;20024;-48
2022/05/04 07:21:53;;;;;;;8.57;5.90;;;;;;;;;;5069443;28;20036;-49
2022/05/04 07:24:19;;;;;;;11.32;5.60;;;;;;;;;;5080810;28;20028;-47
2022/05/04 07:26:45;;;;;;;13.45;7.22;;;;;;;;;;5052207;28;20072;-51
2022/05/04 07:29:11;;;;;;;10.07;6.05;;;;;;;;;;5065931;28;20028;-46
2022/05/04 07:31:37;;;;;;;9.68;5.78;;;;;;;;;;5054638;28;20025;-50
2022/05/04 07:34:04;;;;;;;11.48;5.88;;;;;;;;;;5064498;28;20687;-51
2022/05/04 07:36:30;;;;;;;8.63;5.18;;;;;;;;;;5085043;28;20028;-48
2022/05/04 07:38:56;;;;;;;12.07;5.20;;;;;;;;;;5075412;28;20465;-48
2022/05/04 07:44:07;;;;;;;7.05;4.57;;;;;;;;;;5068709;28;20063;-48
2022/05/04 07:46:33;;;;;;;10.10;4.90;;;;;;;;;;5073982;28;20396;-47
2022/05/04 07:49:00;;;;;;;8.35;4.97;;;;;;;;;;5070459;28;20029;-46
2022/05/04 07:51:26;;;;;;;11.07;4.60;;;;;;;;;;5049070;28;20036;-49
2022/05/04 07:53:52;;;;;;;6.68;4.03;;;;;;;;;;5090661;28;20522;-51
2022/05/04 07:56:18;;;;;;;6.57;4.30;;;;;;;;;;5083784;28;20035;-48
2022/05/04 07:58:44;;;;;;;8.35;4.50;;;;;;;;;;5083514;28;20025;-47
2022/05/04 08:06:39;;;;;;;7.10;4.03;;;;;;;;;;5077733;28;20133;-50
2022/05/04 08:09:05;;;;;;;8.25;4.43;;;;;;;;;;5082766;28;20021;-47
2022/05/04 08:11:31;;;;;;;7.22;4.25;;;;;;;;;;5078968;28;20032;-50
2022/05/04 08:13:57;;;;;;;6.50;4.15;;;;;;;;;;5081593;28;20029;-49
2022/05/04 08:16:23;;;;;;;7.18;3.92;;;;;;;;;;5074834;28;20066;-50
2022/05/04 08:18:49;;;;;;;8.20;4.03;;;;;;;;;;5057285;28;20079;-50
2022/05/04 08:21:15;;;;;;;9.98;4.13;;;;;;;;;;5082088;28;20027;-49
2022/05/04 08:23:41;;;;;;;7.93;4.35;;;;;;;;;;5069338;28;20020;-47
2022/05/04 08:26:07;;;;;;;9.05;3.67;;;;;;;;;;5086391;28;20035;-48
2022/05/04 08:28:33;;;;;;;5.38;3.38;;;;;;;;;;5063016;28;20492;-48
2022/05/04 08:30:59;;;;;;;6.45;3.88;;;;;;;;;;5071887;28;20381;-48
2022/05/04 08:33:25;;;;;;;6.63;3.75;;;;;;;;;;5090461;28;20077;-51
2022/05/04 08:35:51;;;;;;;5.50;3.50;;;;;;;;;;5060068;28;20025;-49
2022/05/04 08:38:17;;;;;;;6.97;3.10;;;;;;;;;;5088529;28;20020;-49
2022/05/04 08:40:43;;;;;;;5.72;2.90;;;;;;;;;;5083311;28;20440;-48
2022/05/04 08:43:09;;;;;;;6.75;3.70;;;;;;;;;;5072173;28;20024;-49
2022/05/04 08:45:36;;;;;;;4.75;2.78;;;;;;;;;;5076935;28;20421;-51
2022/05/04 08:48:04;;;;;;;5.28;2.85;;;;;;;;;;5086882;28;20036;-47
2022/05/04 08:50:31;;;;;;;5.38;2.50;;;;;;;;;;5076596;28;20081;-49
2022/05/04 08:52:57;;;;;;;3.95;2.90;;;;;;;;;;5080756;28;20075;-47
2022/05/04 08:55:24;;;;;;;3.35;2.38;;;;;;;;;;5086243;28;20022;-51
2022/05/04 08:57:51;;;;;;;3.25;2.38;;;;;;;;;;5076509;28;20498;-48
2022/05/04 09:00:17;;;;;;;4.15;2.47;;;;;;;;;;5090668;28;20020;-47
2022/05/04 09:02:43;;;;;;;4.28;2.35;;;;;;;;;;5079092;28;20102;-47
2022/05/04 09:05:18;;;;;;;3.95;2.85;;;;;;;;;;5065045;28;20497;-50
2022/05/04 09:07:45;;;;;;;4.68;2.25;;;;;;;;;;5077566;28;20436;-50
2022/05/04 09:10:21;;;;;;;3.35;2.47;;;;;;;;;;5066977;28;20021;-47
2022/05/04 09:12:47;;;;;;;6.35;2.20;;;;;;;;;;5070044;28;20055;-48
2022/05/04 09:15:27;;;;;;;4.53;2.50;;;;;;;;;;5061057;28;20112;-48
2022/05/04 09:18:07;;;;;;;4.82;2.70;;;;;;;;;;5060674;28;20028;-47
2022/05/04 09:20:53;;;;;;;7.57;2.60;;;;;;;;;;5067567;28;20040;-49
2022/05/04 09:23:19;;;;;;;4.13;2.38;;;;;;;;;;5064332;28;20544;-48
2022/05/04 09:25:48;;;;;;;8.07;2.60;;;;;;;;;;5074919;28;20022;-48
2022/05/04 09:28:14;;;;;;;5.75;2.53;;;;;;;;;;5065108;28;20029;-50
2022/05/04 09:30:48;;;;;;;5.10;2.15;;;;;;;;;;5058199;28;20107;-50
2022/05/04 09:33:17;;;;;;;5.07;2.97;;;;;;;;;;5084784;28;20036;-50
2022/05/04 09:35:43;;;;;;;3.92;2.28;;;;;;;;;;5073914;28;20031;-48
2022/05/04 09:46:42;;;;;;;3.88;2.10;;;;;;;;;;5075280;28;20035;-52
2022/05/04 09:49:11;;;;;;;7.13;2.05;;;;;;;;;;5062854;28;20024;-50
2022/05/04 09:51:39;;;;;;;6.05;2.00;;;;;;;;;;5065402;28;20607;-48
2022/05/04 09:54:16;;;;;;;6.13;2.35;;;;;;;;;;5071934;28;20098;-51
2022/05/04 09:56:42;;;;;;;3.50;1.92;;;;;;;;;;5076570;28;20394;-49
2022/05/04 09:59:09;;;;;;;5.20;2.20;;;;;;;;;;5062731;28;20036;-48
2022/05/04 10:01:35;;;;;;;3.00;2.15;;;;;;;;;;5089948;28;20020;-47
2022/05/04 10:04:04;;;;;;;4.78;2.63;;;;;;;;;;5049540;28;20107;-47
2022/05/04 10:06:31;;;;;;;3.15;1.48;;;;;;;;;;5060040;28;20558;-48
2022/05/04 10:08:57;;;;;;;6.20;2.00;;;;;;;;;;5054488;28;20472;-50
2022/05/04 10:11:23;;;;;;;2.80;2.08;;;;;;;;;;5064843;28;20028;-50
2022/05/04 10:13:53;;;;;;;4.05;1.90;;;;;;;;;;5056079;28;20033;-48
2022/05/04 10:16:19;;;;;;;4.85;2.55;;;;;;;;;;5057506;28;20029;-48
2022/05/04 10:18:46;;;;;;;3.58;1.90;;;;;;;;;;5053938;28;20036;-50
2022/05/04 10:21:15;;;;;;;6.00;2.15;;;;;;;;;;5069472;28;20025;-49
2022/05/04 10:23:43;;;;;;;3.78;1.95;;;;;;;;;;5079215;28;20519;-50
2022/05/04 10:26:14;;;;;;;3.95;1.92;;;;;;;;;;5057377;28;20609;-48
2022/05/04 10:30:30;;;;;;;3.53;1.95;;;;;;;;;;5081340;28;20066;-46
2022/05/04 10:31:36;;;;;;;5.70;2.08;;;;;;;;;;5068061;28;20036;-48
2022/05/04 10:34:08;;;;;;;4.13;2.10;;;;;;;;;;5068825;28;20021;-51
2022/05/04 10:36:34;;;;;;;3.47;2.00;;;;;;;;;;5062797;28;20051;-47
2022/05/04 10:39:06;;;;;;;2.45;1.55;;;;;;;;;;5067036;28;20487;-50
2022/05/04 10:41:39;;;;;;;4.90;2.10;;;;;;;;;;5035947;28;20055;-51
2022/05/04 10:44:05;;;;;;;;;;;;;;;;;;5074654;28;20131;-51
2022/05/04 10:46:32;;;;;;;3.03;1.85;;;;;;;;;;5067586;28;20016;-49
2022/05/04 10:48:59;;;;;;;2.83;1.55;;;;;;;;;;5093178;28;20027;-48
2022/05/04 10:51:29;;;;;;;2.53;1.67;;;;;;;;;;5077907;28;20029;-48
2022/05/04 10:53:59;;;;;;;3.08;1.70;;;;;;;;;;5072765;28;20057;-46
2022/05/04 10:56:26;;;;;;;2.92;1.73;;;;;;;;;;5075471;28;20107;-50
2022/05/04 10:58:55;;;;;;;2.60;1.80;;;;;;;;;;5060618;28;20101;-50
2022/05/04 11:01:28;;;;;;;5.75;2.67;;;;;;;;;;5064257;28;20017;-47
2022/05/04 11:04:15;;;;;;;3.17;1.80;;;;;;;;;;5068158;28;20110;-49
2022/05/04 11:06:45;;;;;;;3.40;1.85;;;;;;;;;;5072317;28;20495;-51
2022/05/04 11:09:15;;;;;;;12.25;2.20;;;;;;;;;;5069325;28;20032;-49
2022/05/04 11:11:45;;;;;;;4.20;2.00;;;;;;;;;;5078303;28;20027;-48
2022/05/04 11:14:12;;;;;;;3.13;1.30;;;;;;;;;;5073957;28;20037;-48
2022/05/04 11:16:39;;;;;;;3.40;1.67;;;;;;;;;;5072266;28;20032;-45
2022/05/04 11:19:06;;;;;;;3.67;1.40;;;;;;;;;;5082773;28;20739;-49
2022/05/04 11:21:33;;;;;;;3.15;1.92;;;;;;;;;;5082864;28;20032;-47
2022/05/04 11:24:02;;;;;;;3.22;1.70;;;;;;;;;;5092717;28;20044;-47
2022/05/04 11:26:36;;;;;;;3.53;2.08;;;;;;;;;;5072960;28;20550;-47
2022/05/04 11:29:06;;;;;;;2.30;1.42;;;;;;;;;;5063386;28;20052;-48
2022/05/04 11:31:32;;;;;;;3.35;1.42;;;;;;;;;;5063766;28;20025;-47
2022/05/04 11:33:58;;;;;;;3.08;1.65;;;;;;;;;;5081636;28;20044;-48
2022/05/04 11:36:24;;;;;;;2.50;1.88;;;;;;;;;;5063689;28;20476;-48
2022/05/04 11:38:51;;;;;;;4.15;1.65;;;;;;;;;;5067129;28;20441;-48
2022/05/04 11:41:17;;;;;;;2.92;1.80;;;;;;;;;;5065940;28;20180;-47
2022/05/04 11:43:43;;;;;;;3.72;1.60;;;;;;;;;;5082740;28;20048;-50
2022/05/04 11:46:10;;;;;;;5.65;1.70;;;;;;;;;;5083859;28;20021;-47
2022/05/04 11:48:38;;;;;;;3.78;1.90;;;;;;;;;;5035549;28;20495;-48
2022/05/04 11:51:04;;;;;;;2.70;1.75;;;;;;;;;;5065918;28;20508;-49
2022/05/04 11:53:30;;;;;;;3.08;1.35;;;;;;;;;;5073893;28;20064;-49
2022/05/04 11:55:59;;;;;;;1.48;1.38;;;;;;;;;;5065897;28;20020;-49
2022/05/04 11:58:27;;;;;;;3.50;1.92;;;;;;;;;;5069174;28;20039;-54
2022/05/04 12:00:53;;;;;;;3.20;1.77;;;;;;;;;;5035737;28;20071;-47
2022/05/04 12:03:19;;;;;;;2.35;1.50;;;;;;;;;;5064206;28;20032;-49
2022/05/04 12:05:46;;;;;;;3.13;1.60;;;;;;;;;;5058154;28;20033;-48
2022/05/04 12:08:14;;;;;;;2.13;1.20;;;;;;;;;;5083971;28;20318;-49
2022/05/04 12:10:41;;;;;;;1.65;1.25;;;;;;;;;;5057524;28;20032;-50
2022/05/04 12:13:07;;;;;;;2.88;1.80;;;;;;;;;;5055342;28;20074;-50
2022/05/04 12:15:34;;;;;;;4.68;1.75;;;;;;;;;;5069501;28;20416;-49
2022/05/04 12:18:00;;;;;;;2.42;1.35;;;;;;;;;;5059274;28;20793;-50
2022/05/04 12:20:27;;;;;;;3.85;1.20;;;;;;;;;;5065599;28;20638;-49
2022/05/04 12:22:53;;;;;;;1.77;1.42;;;;;;;;;;5051422;28;20028;-51
2022/05/04 12:25:20;;;;;;;5.13;1.70;;;;;;;;;;5045818;28;20017;-46
2022/05/04 12:27:46;;;;;;;5.70;1.60;;;;;;;;;;5044502;28;20094;-51
2022/05/04 12:33:10;;;;;;;2.92;1.52;;;;;;;;;;5052609;28;20099;-49
2022/05/04 12:35:37;;;;;;;2.67;1.55;;;;;;;;;;5054300;28;20032;-48
2022/05/04 12:38:03;;;;;;;4.00;1.48;;;;;;;;;;5057996;28;20020;-47
2022/05/04 12:40:33;;;;;;;3.38;1.52;;;;;;;;;;5074018;28;20032;-44
2022/05/04 12:43:00;;;;;;;2.42;1.50;;;;;;;;;;5080103;28;20020;-47
2022/05/04 12:45:26;;;;;;;1.85;1.63;;;;;;;;;;5085335;28;20039;-50
2022/05/04 12:47:56;;;;;;;3.13;1.85;;;;;;;;;;5065400;28;20061;-45
2022/05/04 12:50:23;;;;;;;3.05;1.63;;;;;;;;;;5079921;28;20395;-48
2022/05/04 12:52:49;;;;;;;2.20;1.63;;;;;;;;;;5060192;28;20452;-50
2022/05/04 12:55:16;;;;;;;2.83;1.60;;;;;;;;;;5036781;28;20045;-48
2022/05/04 12:57:42;;;;;;;2.47;1.42;;;;;;;;;;5081017;28;20032;-46
2022/05/04 13:00:08;;;;;;;2.70;1.45;;;;;;;;;;5075375;28;20381;-47
2022/05/04 13:02:34;;;;;;;2.60;1.75;;;;;;;;;;5065331;28;20033;-50
2022/05/04 13:05:02;;;;;;;2.40;1.88;;;;;;;;;;5063846;28;20028;-48
2022/05/04 13:07:28;;;;;;;3.63;1.63;;;;;;;;;;5053353;28;20020;-50
2022/05/04 13:09:54;;;;;;;3.25;1.55;;;;;;;;;;5044891;28;20029;-48
2022/05/04 13:12:20;;;;;;;5.82;1.88;;;;;;;;;;5053600;28;20085;-47
2022/05/04 13:14:46;;;;;;;2.35;1.83;;;;;;;;;;5077230;28;20036;-49
2022/05/04 13:17:12;;;;;;;3.05;2.28;;;;;;;;;;5066855;28;20040;-48
2022/05/04 13:19:38;;;;;;;3.03;2.00;;;;;;;;;;5070216;28;20036;-51
2022/05/04 13:22:04;;;;;;;3.33;2.13;;;;;;;;;;5040542;28;20465;-49
2022/05/04 13:24:30;;;;;;;1.73;1.30;;;;;;;;;;5074708;28;20027;-48
2022/05/04 13:26:56;;;;;;;3.40;2.00;;;;;;;;;;5081003;28;20033;-50
2022/05/04 13:29:22;;;;;;;3.50;2.10;;;;;;;;;;5067460;28;20036;-48
2022/05/04 13:31:49;;;;;;;3.85;2.40;;;;;;;;;;5070602;28;20042;-50
2022/05/04 13:34:15;;;;;;;2.70;1.55;;;;;;;;;;5066479;28;20454;-47
2022/05/04 13:36:41;;;;;;;4.43;2.10;;;;;;;;;;5051926;28;20103;-47
2022/05/04 13:39:08;;;;;;;3.70;1.98;;;;;;;;;;5053037;28;20507;-50
2022/05/04 13:41:34;;;;;;;2.78;1.85;;;;;;;;;;5060112;28;20110;-49
2022/05/04 13:44:00;;;;;;;4.00;1.92;;;;;;;;;;5075959;28;20025;-48
2022/05/04 13:46:26;;;;;;;3.55;2.25;;;;;;;;;;5058293;28;20025;-50
2022/05/04 13:48:52;;;;;;;3.13;2.17;;;;;;;;;;5077071;28;20035;-48
2022/05/04 13:54:03;;;;;;;2.97;2.10;;;;;;;;;;5082048;28;20043;-52
2022/05/04 13:56:30;;;;;;;3.10;1.98;;;;;;;;;;5058781;28;20439;-51
2022/05/04 13:58:56;;;;;;;5.20;2.20;;;;;;;;;;5066270;28;20476;-50
2022/05/04 14:01:22;;;;;;;3.10;2.38;;;;;;;;;;5084947;28;20573;-48
2022/05/04 14:03:49;;;;;;;3.83;2.15;;;;;;;;;;5069544;28;20915;-50
2022/05/04 14:06:15;;;;;;;4.35;2.15;;;;;;;;;;5068815;28;20029;-47
2022/05/04 14:08:42;;;;;;;3.47;2.67;;;;;;;;;;5082043;28;20032;-51
2022/05/04 14:11:08;;;;;;;4.95;2.38;;;;;;;;;;5061261;28;20090;-49
2022/05/04 14:13:34;;;;;;;3.53;2.30;;;;;;;;;;5073162;28;20024;-50
2022/05/04 14:16:00;;;;;;;3.80;2.58;;;;;;;;;;5067809;28;20028;-52
2022/05/04 14:18:27;;;;;;;3.60;2.28;;;;;;;;;;5091705;28;20478;-51
2022/05/04 14:20:55;;;;;;;4.43;2.20;;;;;;;;;;5088629;28;20020;-51
2022/05/04 14:23:21;;;;;;;2.65;1.52;;;;;;;;;;5072676;28;20032;-50
2022/05/04 14:25:47;;;;;;;3.78;2.33;;;;;;;;;;5070751;28;20696;-49
2022/05/04 14:28:14;;;;;;;3.88;2.40;;;;;;;;;;5072723;28;20035;-49
2022/05/04 14:30:40;;;;;;;4.15;2.40;;;;;;;;;;5066162;28;20021;-51
2022/05/04 14:33:07;;;;;;;4.60;2.25;;;;;;;;;;5061233;28;20724;-52
2022/05/04 14:35:33;;;;;;;5.25;2.40;;;;;;;;;;5089465;28;20658;-51
2022/05/04 14:37:59;;;;;;;3.85;2.17;;;;;;;;;;5062996;28;20181;-49
2022/05/04 14:40:25;;;;;;;4.22;2.00;;;;;;;;;;5057422;28;20404;-49
2022/05/04 14:42:51;;;;;;;6.22;2.45;;;;;;;;;;5061276;28;20490;-50
2022/05/04 14:45:18;;;;;;;3.97;1.95;;;;;;;;;;5064132;28;20031;-49
2022/05/04 14:47:44;;;;;;;3.97;1.80;;;;;;;;;;5068177;28;20056;-49
2022/05/04 14:50:10;;;;;;;3.97;2.42;;;;;;;;;;5073381;28;20443;-51
2022/05/04 14:52:36;;;;;;;4.85;2.22;;;;;;;;;;5066470;28;20076;-48
2022/05/04 14:55:02;;;;;;;3.60;2.65;;;;;;;;;;5080132;28;20031;-53
2022/05/04 14:57:28;;;;;;;3.00;2.30;;;;;;;;;;5075868;28;20132;-52
2022/05/04 14:59:54;;;;;;;5.15;2.40;;;;;;;;;;5090488;28;20028;-50
2022/05/04 15:02:21;;;;;;;5.63;2.30;;;;;;;;;;5071378;28;20048;-49
2022/05/04 15:05:03;;;;;;;2.85;2.03;;;;;;;;;;5072887;28;20100;-51
2022/05/04 15:07:30;;;;;;;2.60;2.10;;;;;;;;;;5068383;28;20021;-49
2022/05/04 15:09:56;;;;;;;2.72;1.55;;;;;;;;;;5038301;28;20032;-50
2022/05/04 15:12:22;;;;;;;6.28;2.10;;;;;;;;;;5088474;28;20074;-52
2022/05/04 15:14:48;;;;;;;3.20;1.95;;;;;;;;;;5088004;28;20107;-53
2022/05/04 15:17:14;;;;;;;3.38;1.75;;;;;;;;;;5070518;28;20028;-52